createdAt,value
2022-12-18T00:00:06.181Z,11.50
2022-12-18T00:02:34.229Z,14.80
2022-12-18T00:05:01.965Z,15.30
2022-12-18T00:07:29.538Z,16.70
2022-12-18T00:09:57.150Z,16.50
2022-12-18T00:12:24.688Z,12.00
2022-12-18T00:14:52.331Z,15.40
2022-12-18T00:17:19.928Z,13.70
2022-12-18T00:19:48.241Z,13.40
2022-12-18T00:22:16.761Z,15.70
2022-12-18T00:24:44.372Z,14.50
2022-12-18T00:27:11.898Z,15.70
2022-12-18T00:29:39.453Z,13.40
2022-12-18T00:32:06.960Z,12.80
2022-12-18T00:34:34.555Z,15.50
2022-12-18T00:37:02.109Z,14.20
2022-12-18T00:39:30.299Z,16.00
2022-12-18T00:41:57.889Z,14.40
2022-12-18T00:44:25.481Z,15.70
2022-12-18T00:46:53.018Z,14.20
2022-12-18T00:49:20.916Z,16.30
2022-12-18T00:51:49.649Z,15.50
2022-12-18T00:54:17.634Z,15.60
2022-12-18T00:56:49.079Z,15.80
2022-12-18T00:59:18.750Z,15.40
2022-12-18T01:01:47.934Z,14.50
2022-12-18T01:04:16.570Z,15.00
2022-12-18T01:06:44.586Z,14.70
2022-12-18T01:09:12.374Z,15.80
2022-12-18T01:11:40.702Z,15.20
2022-12-18T01:14:08.325Z,14.70
2022-12-18T01:16:36.019Z,15.40
2022-12-18T01:19:03.778Z,13.80
2022-12-18T01:21:31.521Z,15.40
2022-12-18T01:23:59.481Z,16.60
2022-12-18T01:26:27.820Z,15.70
2022-12-18T01:28:57.339Z,17.50
2022-12-18T01:31:28.363Z,14.20
2022-12-18T01:33:57.394Z,16.10
2022-12-18T01:36:27.771Z,14.60
2022-12-18T01:38:56.579Z,14.70
2022-12-18T01:41:26.893Z,15.40
2022-12-18T01:43:59.387Z,13.50
2022-12-18T01:46:28.181Z,16.40
2022-12-18T01:49:02.078Z,18.60
2022-12-18T01:51:31.742Z,16.00
2022-12-18T01:54:00.301Z,14.70
2022-12-18T01:56:28.055Z,13.10
2022-12-18T01:59:06.145Z,15.90
2022-12-18T02:01:36.356Z,14.40
2022-12-18T02:04:24.808Z,15.30
2022-12-18T02:07:01.572Z,14.80
2022-12-18T02:09:38.096Z,14.50
2022-12-18T02:12:16.784Z,15.90
2022-12-18T02:14:56.531Z,17.60
2022-12-18T02:17:35.446Z,19.50
2022-12-18T02:20:14.140Z,17.10
2022-12-18T02:22:59.699Z,18.70
2022-12-18T02:25:33.702Z,17.60
2022-12-18T02:28:06.205Z,16.90
2022-12-18T02:30:37.153Z,14.60
2022-12-18T02:33:09.499Z,15.30
2022-12-18T02:35:38.403Z,15.60
2022-12-18T02:38:07.380Z,14.00
2022-12-18T02:40:36.847Z,13.40
2022-12-18T02:43:13.793Z,20.90
2022-12-18T02:45:54.263Z,18.40
2022-12-18T02:48:27.082Z,15.30
2022-12-18T02:51:15.429Z,14.10
2022-12-18T02:53:59.027Z,15.00
2022-12-18T02:56:36.736Z,13.60
2022-12-18T02:59:17.152Z,11.70
2022-12-18T03:02:00.325Z,11.40
2022-12-18T03:07:06.724Z,12.90
2022-12-18T03:09:39.345Z,17.20
2022-12-18T03:12:35.555Z,23.00
2022-12-18T03:15:22.449Z,18.70
2022-12-18T03:17:56.126Z,18.80
2022-12-18T03:20:26.911Z,17.80
2022-12-18T03:25:33.159Z,18.20
2022-12-18T03:28:03.497Z,15.70
2022-12-18T03:30:34.946Z,16.40
2022-12-18T03:33:09.785Z,15.30
2022-12-18T03:35:42.871Z,21.60
2022-12-18T03:38:11.797Z,20.40
2022-12-18T03:40:48.840Z,19.40
2022-12-18T03:43:38.652Z,17.10
2022-12-18T03:46:14.641Z,16.40
2022-12-18T03:48:53.811Z,14.50
2022-12-18T03:51:29.469Z,15.20
2022-12-18T03:54:01.295Z,12.10
2022-12-18T03:56:32.945Z,16.40
2022-12-18T03:59:02.492Z,16.50
2022-12-18T04:01:38.431Z,16.00
2022-12-18T04:04:07.866Z,17.60
2022-12-18T04:06:36.499Z,14.60
2022-12-18T04:09:06.449Z,16.80
2022-12-18T04:11:34.431Z,13.50
2022-12-18T04:14:05.971Z,15.00
2022-12-18T04:16:35.111Z,13.70
2022-12-18T04:19:02.889Z,14.20
2022-12-18T04:21:31.000Z,20.90
2022-12-18T04:23:58.894Z,22.20
2022-12-18T04:26:26.538Z,18.70
2022-12-18T04:28:54.075Z,15.80
2022-12-18T04:31:21.787Z,15.70
2022-12-18T04:33:49.471Z,15.10
2022-12-18T04:36:17.468Z,13.70
2022-12-18T04:38:45.348Z,14.70
2022-12-18T04:41:12.907Z,18.70
2022-12-18T04:43:40.816Z,22.40
2022-12-18T04:46:09.782Z,20.50
2022-12-18T04:48:38.282Z,16.70
2022-12-18T04:51:07.072Z,20.50
2022-12-18T04:53:34.977Z,17.10
2022-12-18T04:56:07.524Z,16.80
2022-12-18T04:58:36.315Z,17.90
2022-12-18T05:01:04.806Z,16.00
2022-12-18T05:03:32.580Z,21.40
2022-12-18T05:06:00.384Z,22.70
2022-12-18T05:08:27.976Z,23.10
2022-12-18T05:11:10.585Z,18.00
2022-12-18T05:13:39.505Z,19.90
2022-12-18T05:16:08.817Z,18.90
2022-12-18T05:18:37.664Z,22.90
2022-12-18T05:21:05.531Z,16.20
2022-12-18T05:23:33.326Z,23.30
2022-12-18T05:26:03.301Z,18.40
2022-12-18T05:28:32.952Z,17.20
2022-12-18T05:31:03.045Z,18.70
2022-12-18T05:33:34.002Z,20.50
2022-12-18T05:36:03.779Z,18.10
2022-12-18T05:38:33.080Z,15.50
2022-12-18T05:41:01.170Z,16.20
2022-12-18T05:43:29.614Z,18.50
2022-12-18T05:45:57.665Z,22.10
2022-12-18T05:48:25.272Z,21.50
2022-12-18T05:50:53.053Z,22.40
2022-12-18T05:53:21.440Z,22.90
2022-12-18T05:55:49.241Z,19.30
2022-12-18T05:58:17.420Z,20.20
2022-12-18T06:00:46.761Z,20.60
2022-12-18T06:03:15.054Z,18.80
2022-12-18T06:05:45.453Z,17.90
2022-12-18T06:08:14.241Z,18.50
2022-12-18T06:10:42.719Z,24.30
2022-12-18T06:13:10.594Z,23.60
2022-12-18T06:15:38.580Z,21.90
2022-12-18T06:18:06.253Z,21.20
2022-12-18T06:20:34.288Z,21.80
2022-12-18T06:23:01.975Z,22.90
2022-12-18T06:25:29.749Z,21.30
2022-12-18T06:27:57.556Z,17.00
2022-12-18T06:30:25.747Z,24.40
2022-12-18T06:32:56.750Z,22.60
2022-12-18T06:35:24.989Z,22.80
2022-12-18T06:37:52.639Z,24.40
2022-12-18T06:40:20.712Z,24.70
2022-12-18T06:42:48.451Z,22.10
2022-12-18T06:45:16.425Z,22.30
2022-12-18T06:47:44.355Z,21.90
2022-12-18T06:50:12.551Z,20.20
2022-12-18T06:52:40.700Z,21.30
2022-12-18T06:55:09.004Z,21.40
2022-12-18T06:57:37.142Z,16.50
2022-12-18T07:00:07.020Z,25.40
2022-12-18T07:02:35.052Z,26.30
2022-12-18T07:05:07.602Z,35.20
2022-12-18T07:07:38.487Z,30.10
2022-12-18T07:10:06.341Z,25.20
2022-12-18T07:12:34.103Z,24.20
2022-12-18T07:15:02.249Z,23.50
2022-12-18T07:17:29.983Z,21.40
2022-12-18T07:19:57.799Z,23.50
2022-12-18T07:22:28.797Z,22.70
2022-12-18T07:27:24.284Z,21.80
2022-12-18T07:29:52.193Z,29.70
2022-12-18T07:32:19.832Z,27.00
2022-12-18T07:34:47.622Z,25.30
2022-12-18T07:37:15.522Z,27.80
2022-12-18T07:39:43.288Z,27.40
2022-12-18T07:42:11.030Z,32.10
2022-12-18T07:44:38.895Z,28.10
2022-12-18T07:47:10.498Z,28.00
2022-12-18T07:49:40.198Z,26.20
2022-12-18T07:52:08.105Z,27.40
2022-12-18T07:54:36.089Z,24.90
2022-12-18T07:57:07.443Z,25.40
2022-12-18T07:59:40.497Z,24.80
2022-12-18T08:02:08.533Z,27.00
2022-12-18T08:04:36.512Z,25.70
2022-12-18T08:07:04.497Z,26.80
2022-12-18T08:09:32.531Z,35.10
2022-12-18T08:12:00.369Z,27.50
2022-12-18T08:14:27.998Z,27.10
2022-12-18T08:16:55.679Z,25.80
2022-12-18T08:19:23.399Z,25.80
2022-12-18T08:21:51.185Z,27.00
2022-12-18T08:24:18.953Z,24.10
2022-12-18T08:27:06.686Z,22.00
2022-12-18T08:29:34.689Z,25.90
2022-12-18T08:32:02.683Z,22.80
2022-12-18T08:34:30.621Z,25.70
2022-12-18T08:36:58.818Z,26.50
2022-12-18T08:39:26.660Z,24.60
2022-12-18T08:41:54.336Z,23.30
2022-12-18T08:44:21.896Z,25.60
2022-12-18T08:46:50.326Z,27.50
2022-12-18T08:49:18.228Z,27.90
2022-12-18T08:51:46.035Z,24.10
2022-12-18T08:54:13.723Z,24.70
2022-12-18T08:56:41.291Z,28.10
2022-12-18T08:59:13.136Z,28.90
2022-12-18T09:01:46.270Z,28.30
2022-12-18T09:04:14.268Z,24.70
2022-12-18T09:06:41.963Z,26.30
2022-12-18T09:09:10.609Z,27.00
2022-12-18T09:11:38.485Z,25.00
2022-12-18T09:14:06.066Z,24.60
2022-12-18T09:16:34.524Z,25.50
2022-12-18T09:19:04.824Z,21.00
2022-12-18T09:21:37.084Z,23.50
2022-12-18T09:24:08.652Z,26.20
2022-12-18T09:26:37.040Z,24.30
2022-12-18T09:29:05.266Z,25.50
2022-12-18T09:31:33.035Z,24.20
2022-12-18T09:34:00.620Z,25.10
2022-12-18T09:36:28.594Z,25.10
2022-12-18T09:38:56.221Z,25.50
2022-12-18T09:41:46.193Z,26.20
2022-12-18T09:44:32.132Z,25.00
2022-12-18T09:47:18.284Z,25.80
2022-12-18T09:49:50.327Z,25.50
2022-12-18T09:52:42.999Z,21.40
2022-12-18T09:55:32.200Z,22.40
2022-12-18T09:58:10.648Z,23.10
2022-12-18T10:00:38.628Z,23.60
2022-12-18T10:03:16.905Z,21.20
2022-12-18T10:06:07.358Z,21.30
2022-12-18T10:08:55.617Z,24.50
2022-12-18T10:11:51.968Z,20.30
2022-12-18T10:14:33.583Z,18.60
2022-12-18T10:17:19.333Z,21.30
2022-12-18T10:20:20.161Z,19.10
2022-12-18T10:23:09.438Z,19.80
2022-12-18T10:28:16.392Z,17.80
2022-12-18T10:30:44.661Z,20.20
2022-12-18T10:33:17.508Z,18.00
2022-12-18T10:35:47.183Z,19.10
2022-12-18T10:38:14.724Z,19.80
2022-12-18T10:40:53.775Z,20.10
2022-12-18T10:43:36.084Z,21.90
2022-12-18T10:46:09.818Z,23.20
2022-12-18T10:48:58.673Z,20.50
2022-12-18T10:51:38.506Z,22.10
2022-12-18T10:54:16.681Z,22.00
2022-12-18T10:56:45.326Z,23.40
2022-12-18T10:59:17.396Z,22.50
2022-12-18T11:01:53.532Z,21.00
2022-12-18T11:04:24.676Z,21.30
2022-12-18T11:07:12.789Z,20.70
2022-12-18T11:09:41.656Z,22.00
2022-12-18T11:12:20.849Z,20.40
2022-12-18T11:14:51.697Z,23.20
2022-12-18T11:17:40.108Z,24.20
2022-12-18T11:20:40.914Z,21.20
2022-12-18T11:23:14.317Z,17.30
2022-12-18T11:25:52.879Z,18.30
2022-12-18T11:28:37.118Z,19.20
2022-12-18T11:31:27.314Z,18.00
2022-12-18T11:34:27.512Z,15.90
2022-12-18T11:36:48.877Z,14.80
2022-12-18T11:39:41.848Z,15.10
2022-12-18T11:42:23.262Z,16.30
2022-12-18T11:45:00.520Z,16.90
2022-12-18T11:47:51.916Z,16.60
2022-12-18T11:50:25.454Z,17.10
2022-12-18T11:52:57.501Z,17.00
2022-12-18T11:55:41.042Z,16.60
2022-12-18T11:58:14.527Z,13.70
2022-12-18T12:00:58.235Z,16.40
2022-12-18T12:03:41.236Z,18.50
2022-12-18T12:06:30.943Z,17.50
2022-12-18T12:09:19.075Z,21.80
2022-12-18T12:12:17.431Z,19.60
2022-12-18T12:15:04.936Z,17.90
2022-12-18T12:18:11.635Z,17.10
2022-12-18T12:21:03.992Z,16.60
2022-12-18T12:24:01.079Z,17.10
2022-12-18T12:26:39.959Z,14.90
2022-12-18T12:29:29.599Z,15.10
2022-12-18T12:32:18.568Z,15.10
2022-12-18T12:35:19.862Z,14.60
2022-12-18T12:37:56.164Z,15.00
2022-12-18T12:43:48.058Z,16.20
2022-12-18T12:46:22.852Z,15.20
2022-12-18T12:48:57.793Z,14.50
2022-12-18T12:51:34.644Z,17.00
2022-12-18T12:54:06.383Z,16.80
2022-12-18T12:56:47.984Z,14.20
2022-12-18T12:59:29.253Z,16.00
2022-12-18T13:02:18.817Z,14.10
2022-12-18T13:05:34.651Z,12.70
2022-12-18T13:08:11.448Z,13.10
2022-12-18T13:10:44.972Z,13.50
2022-12-18T13:13:18.289Z,13.60
2022-12-18T13:16:07.491Z,14.50
2022-12-18T13:18:36.221Z,14.60
2022-12-18T13:21:20.214Z,15.60
2022-12-18T13:23:47.850Z,14.40
2022-12-18T13:26:21.926Z,15.60
2022-12-18T13:28:55.312Z,16.30
2022-12-18T13:31:41.776Z,15.80
2022-12-18T13:34:28.397Z,15.60
2022-12-18T13:37:40.597Z,15.10
2022-12-18T13:40:45.628Z,15.50
2022-12-18T13:43:24.882Z,18.30
2022-12-18T13:46:01.619Z,17.40
2022-12-18T13:48:32.367Z,19.20
2022-12-18T13:51:00.563Z,17.40
2022-12-18T13:53:33.989Z,17.80
2022-12-18T13:56:03.668Z,16.20
2022-12-18T13:58:32.000Z,15.20
2022-12-18T14:00:59.782Z,16.10
2022-12-18T14:03:29.581Z,15.30
2022-12-18T14:06:02.144Z,14.50
2022-12-18T14:08:43.039Z,15.10
2022-12-18T14:11:23.301Z,16.70
2022-12-18T14:13:51.558Z,17.60
2022-12-18T14:16:19.416Z,17.90
2022-12-18T14:18:55.017Z,17.20
2022-12-18T14:21:27.598Z,16.70
2022-12-18T14:24:20.112Z,16.60
2022-12-18T14:26:50.521Z,20.40
2022-12-18T14:29:24.977Z,18.60
2022-12-18T14:32:17.755Z,21.10
2022-12-18T14:34:53.807Z,19.90
2022-12-18T14:37:26.918Z,22.90
2022-12-18T14:39:55.190Z,18.30
2022-12-18T14:42:23.561Z,22.70
2022-12-18T14:45:12.873Z,17.10
2022-12-18T14:47:38.895Z,22.90
2022-12-18T14:50:14.981Z,23.20
2022-12-18T14:52:42.639Z,23.60
2022-12-18T14:55:21.381Z,34.80
2022-12-18T14:57:55.873Z,38.70
2022-12-18T15:00:26.459Z,26.80
2022-12-18T15:02:56.505Z,25.30
2022-12-18T15:05:30.337Z,25.70
2022-12-18T15:08:00.560Z,21.30
2022-12-18T15:10:34.684Z,19.10
2022-12-18T15:13:02.712Z,21.50
2022-12-18T15:15:50.295Z,26.70
2022-12-18T15:18:43.052Z,26.20
2022-12-18T15:21:17.238Z,26.80
2022-12-18T15:23:45.057Z,29.50
2022-12-18T15:26:15.484Z,27.10
2022-12-18T15:28:49.935Z,30.40
2022-12-18T15:31:17.999Z,30.60
2022-12-18T15:34:02.213Z,28.60
2022-12-18T15:36:30.302Z,27.90
2022-12-18T15:39:04.206Z,28.50
2022-12-18T15:41:36.026Z,28.70
2022-12-18T15:44:24.084Z,29.10
2022-12-18T15:46:51.835Z,31.10
2022-12-18T15:49:19.764Z,32.00
2022-12-18T15:51:55.060Z,29.30
2022-12-18T15:54:23.526Z,30.70
2022-12-18T15:56:51.121Z,31.70
2022-12-18T15:59:21.310Z,30.00
2022-12-18T16:01:51.647Z,31.30
2022-12-18T16:04:22.152Z,29.40
2022-12-18T16:07:13.732Z,28.70
2022-12-18T16:09:40.029Z,28.40
2022-12-18T16:12:16.462Z,29.30
2022-12-18T16:14:44.388Z,30.10
2022-12-18T16:17:13.980Z,32.20
2022-12-18T16:19:41.795Z,27.20
2022-12-18T16:22:21.435Z,30.00
2022-12-18T16:24:49.914Z,29.90
2022-12-18T16:27:17.816Z,31.00
2022-12-18T16:29:46.072Z,35.30
2022-12-18T16:32:18.715Z,33.70
2022-12-18T16:34:47.366Z,33.20
2022-12-18T16:37:16.367Z,30.70
2022-12-18T16:39:44.773Z,33.50
2022-12-18T16:42:20.833Z,29.00
2022-12-18T16:44:50.418Z,30.40
2022-12-18T16:47:19.300Z,33.10
2022-12-18T16:49:46.874Z,31.00
2022-12-18T16:52:14.949Z,33.90
2022-12-18T16:54:42.900Z,34.80
2022-12-18T16:57:15.739Z,36.70
2022-12-18T16:59:43.759Z,34.70
2022-12-18T17:02:23.406Z,31.90
2022-12-18T17:04:57.503Z,31.40
2022-12-18T17:07:26.586Z,29.00
2022-12-18T17:09:54.674Z,31.60
2022-12-18T17:12:22.514Z,29.40
2022-12-18T17:14:50.598Z,35.10
2022-12-18T17:17:21.885Z,30.10
2022-12-18T17:19:51.642Z,38.60
2022-12-18T17:22:20.919Z,33.40
2022-12-18T17:24:48.475Z,30.90
2022-12-18T17:27:16.419Z,32.70
2022-12-18T17:29:47.886Z,36.80
2022-12-18T17:32:17.261Z,36.40
2022-12-18T17:34:45.218Z,38.90
2022-12-18T17:37:13.393Z,36.60
2022-12-18T17:39:41.414Z,36.30
2022-12-18T17:42:09.013Z,37.30
2022-12-18T17:44:38.605Z,35.50
2022-12-18T17:47:07.196Z,30.80
2022-12-18T17:49:34.863Z,39.20
2022-12-18T17:52:02.425Z,35.90
2022-12-18T17:54:30.375Z,36.70
2022-12-18T17:56:57.932Z,37.20
2022-12-18T17:59:25.475Z,32.00
2022-12-18T18:01:53.221Z,37.40
2022-12-18T18:04:21.565Z,37.90
2022-12-18T18:06:49.209Z,35.00
2022-12-18T18:09:54.829Z,33.50
2022-12-18T18:13:00.308Z,33.20
2022-12-18T18:15:54.755Z,32.30
2022-12-18T18:18:22.751Z,29.90
2022-12-18T18:20:53.999Z,32.30
2022-12-18T18:23:22.137Z,35.20
2022-12-18T18:25:49.910Z,34.90
2022-12-18T18:28:17.800Z,37.70
2022-12-18T18:30:45.515Z,37.20
2022-12-18T18:33:13.161Z,37.60
2022-12-18T18:35:53.922Z,38.10
2022-12-18T18:38:22.043Z,34.30
2022-12-18T18:41:01.159Z,31.50
2022-12-18T18:43:29.827Z,32.50
2022-12-18T18:45:59.042Z,33.90
2022-12-18T18:48:28.757Z,34.30
2022-12-18T18:51:07.279Z,34.10
2022-12-18T18:53:40.220Z,35.00
2022-12-18T18:58:56.814Z,36.60
2022-12-18T19:01:25.840Z,36.30
2022-12-18T19:03:54.407Z,37.80
2022-12-18T19:06:25.497Z,36.30
2022-12-18T19:11:24.461Z,32.30
2022-12-18T19:13:52.876Z,33.10
2022-12-18T19:16:20.576Z,30.20
2022-12-18T19:18:50.437Z,30.50
2022-12-18T19:21:18.318Z,32.20
2022-12-18T19:23:45.870Z,30.50
2022-12-18T19:26:27.842Z,30.00
2022-12-18T19:29:07.122Z,31.90
2022-12-18T19:31:36.955Z,31.60
2022-12-18T19:34:06.413Z,29.30
2022-12-18T19:36:36.904Z,29.40
2022-12-18T19:39:15.945Z,30.20
2022-12-18T19:41:44.460Z,30.30
2022-12-18T19:44:14.770Z,29.80
2022-12-18T19:46:43.073Z,29.80
2022-12-18T19:49:11.977Z,28.70
2022-12-18T19:51:46.802Z,30.40
2022-12-18T19:54:17.241Z,28.50
2022-12-18T19:56:46.387Z,34.10
2022-12-18T19:59:15.656Z,30.70
2022-12-18T20:01:43.538Z,30.60
2022-12-18T20:04:11.604Z,29.70
2022-12-18T20:06:48.387Z,26.80
2022-12-18T20:09:17.039Z,30.20
2022-12-18T20:11:45.772Z,28.20
2022-12-18T20:14:18.753Z,29.10
2022-12-18T20:16:51.869Z,27.00
2022-12-18T20:19:20.758Z,31.60
2022-12-18T20:21:48.715Z,31.00
2022-12-18T20:24:16.690Z,32.60
2022-12-18T20:26:44.450Z,33.50
2022-12-18T20:29:12.020Z,31.20
2022-12-18T20:31:40.319Z,32.60
2022-12-18T20:34:08.296Z,32.60
2022-12-18T20:36:37.672Z,32.00
2022-12-18T20:39:09.847Z,29.80
2022-12-18T20:41:39.331Z,28.30
2022-12-18T20:44:23.090Z,33.00
2022-12-18T20:46:54.341Z,29.80
2022-12-18T20:49:23.613Z,30.80
2022-12-18T20:51:55.746Z,28.70
2022-12-18T20:54:26.460Z,30.50
2022-12-18T20:56:54.795Z,28.90
2022-12-18T20:59:23.263Z,28.90
2022-12-18T21:01:51.722Z,29.70
2022-12-18T21:04:19.923Z,31.60
2022-12-18T21:06:52.334Z,29.10
2022-12-18T21:09:23.869Z,32.40
2022-12-18T21:11:51.621Z,28.90
2022-12-18T21:14:25.961Z,32.10
2022-12-18T21:16:54.558Z,29.10
2022-12-18T21:19:25.092Z,31.30
2022-12-18T21:21:54.571Z,30.40
2022-12-18T21:24:22.905Z,30.70
2022-12-18T21:26:51.756Z,30.80
2022-12-18T21:29:22.887Z,28.10
2022-12-18T21:31:53.948Z,30.00
2022-12-18T21:34:26.975Z,29.80
2022-12-18T21:36:58.103Z,29.70
2022-12-18T21:39:29.148Z,33.40
2022-12-18T21:41:57.684Z,35.10
2022-12-18T21:44:25.910Z,33.40
2022-12-18T21:46:59.807Z,34.60
2022-12-18T21:49:31.554Z,33.80
2022-12-18T21:52:00.616Z,34.10
2022-12-18T21:54:29.428Z,31.80
2022-12-18T21:56:59.272Z,27.20
2022-12-18T21:59:36.505Z,25.20
2022-12-18T22:02:07.519Z,29.00
2022-12-18T22:04:35.455Z,31.60
2022-12-18T22:07:05.329Z,31.40
2022-12-18T22:09:33.783Z,30.60
2022-12-18T22:12:02.393Z,29.80
2022-12-18T22:14:29.922Z,28.90
2022-12-18T22:16:57.722Z,28.00
2022-12-18T22:19:26.409Z,30.60
2022-12-18T22:21:55.023Z,31.40
2022-12-18T22:24:25.380Z,26.60
2022-12-18T22:26:54.847Z,26.20
2022-12-18T22:29:30.017Z,26.00
2022-12-18T22:31:59.919Z,26.30
2022-12-18T22:34:28.040Z,23.90
2022-12-18T22:36:55.968Z,28.10
2022-12-18T22:39:27.275Z,30.40
2022-12-18T22:41:57.824Z,22.90
2022-12-18T22:44:25.452Z,22.30
2022-12-18T22:47:05.425Z,21.40
2022-12-18T22:49:35.871Z,23.20
2022-12-18T22:52:06.213Z,21.90
2022-12-18T22:54:34.254Z,22.90
2022-12-18T22:57:02.140Z,23.80
2022-12-18T22:59:30.992Z,22.70
2022-12-18T23:01:59.592Z,20.90
2022-12-18T23:04:27.967Z,23.40
2022-12-18T23:06:58.765Z,20.10
2022-12-18T23:09:26.508Z,21.90
2022-12-18T23:11:54.289Z,22.10
2022-12-18T23:14:22.478Z,21.80
2022-12-18T23:16:50.767Z,19.60
2022-12-18T23:19:23.431Z,21.50
2022-12-18T23:21:51.811Z,21.50
2022-12-18T23:24:22.204Z,21.50
2022-12-18T23:26:49.758Z,21.00
2022-12-18T23:29:17.345Z,21.30
2022-12-18T23:31:45.224Z,22.50
2022-12-18T23:34:14.579Z,23.90
2022-12-18T23:36:46.251Z,25.30
2022-12-18T23:39:28.608Z,27.30
2022-12-18T23:42:00.713Z,24.50
2022-12-18T23:44:28.503Z,31.60
2022-12-18T23:46:56.138Z,24.30
2022-12-18T23:49:24.077Z,24.50
2022-12-18T23:51:54.213Z,22.40
2022-12-18T23:54:22.410Z,23.80
2022-12-18T23:56:55.354Z,22.50
2022-12-18T23:59:25.577Z,21.80
